カラカス の空港の天気 - METARとTAF

シモン・ボリバー空港(バルガス) ( SVMI / CCS ) - ベネズエラ バルガス州、Maiquetia (カラカス近郊)
飛行場実況気象(Metar)
観測時間08/11 03:00 VET (08/11 07:00 UTC)
風向・風速静穏 0m/s
視程10km以上
天気現象
全天の4割程度の雲 雲底高度 490m
気温24℃
湿度94%
気圧1013hPa
METARSVMI 110700Z 00000KT 9999 SCT016 24/23 Q1013
過去の天気等 Google飛行場航空写真 Wunderground天気予報

過去48時間のMETAR

飛行場予報(TAF)
発表時間: 8/11 00:00 VET (8/11 04:00 UTC)
予報対象時間: 11日2時 VET ~ 12日2時 VET
風向・風速東 3m/s
視程10km以上
全天の4割程度の雲 雲底高度 490m
11日2時 VET ~ 11日6時 VET に徐々に
風向・風速東南東 3m/s
視程10km以上
全天の4割程度の雲 雲底高度 490m
全天の8割程度の雲 雲底高度 2130m
TAF SVMI 110400Z 1106/1206 09005KT 9999 SCT016 TX32/1018Z TN23/1008Z
BECMG 1106/1110 12006KT 9999 SCT016 BKN070